Time;durP1;ratioP1;P1;durP2;ratioP2;P2;SDS_P1;SDS_P2;PMS_P1;PMS_P2;Temp;Humidity;BMP_temperature;BMP_pressure;BME280_temperature;BME280_humidity;BME280_pressure;Samples;Min_cycle;Max_cycle;Signal;HPM_P1;HPM_P2
2022/08/26 00:01:22;;;;;;;41.88;20.77;;;;;;;;;;5034903;28;20495;-73
2022/08/26 00:03:48;;;;;;;32.72;18.73;;;;;;;;;;5033354;28;20113;-72
2022/08/26 00:06:14;;;;;;;39.70;21.60;;;;;;;;;;5032237;28;20104;-73
2022/08/26 00:08:40;;;;;;;35.38;19.90;;;;;;;;;;5031252;28;20025;-73
2022/08/26 00:11:07;;;;;;;41.40;22.48;;;;;;;;;;5032058;28;20029;-73
2022/08/26 00:13:33;;;;;;;32.00;19.67;;;;;;;;;;5048085;28;20044;-71
2022/08/26 00:15:59;;;;;;;35.05;19.65;;;;;;;;;;5031794;28;20029;-73
2022/08/26 00:18:26;;;;;;;37.00;20.77;;;;;;;;;;5031889;28;20067;-73
2022/08/26 00:20:52;;;;;;;37.90;21.40;;;;;;;;;;5031850;28;20072;-74
2022/08/26 00:23:18;;;;;;;40.60;21.08;;;;;;;;;;5033019;28;20486;-74
2022/08/26 00:25:44;;;;;;;31.38;19.33;;;;;;;;;;5032743;28;20033;-72
2022/08/26 00:28:10;;;;;;;36.90;21.80;;;;;;;;;;5047084;28;20376;-74
2022/08/26 00:30:36;;;;;;;31.40;20.77;;;;;;;;;;5031094;28;20116;-73
2022/08/26 00:33:04;;;;;;;28.25;20.25;;;;;;;;;;5032140;28;20049;-75
2022/08/26 00:35:30;;;;;;;30.42;21.25;;;;;;;;;;5031953;28;20025;-73
2022/08/26 00:37:56;;;;;;;36.30;20.75;;;;;;;;;;5023287;28;20072;-73
2022/08/26 00:40:25;;;;;;;42.35;21.67;;;;;;;;;;5031897;28;20106;-72
2022/08/26 00:42:51;;;;;;;33.58;22.58;;;;;;;;;;5031444;28;20105;-73
2022/08/26 00:45:18;;;;;;;28.42;21.00;;;;;;;;;;5031544;28;20112;-72
2022/08/26 00:47:45;;;;;;;35.15;21.25;;;;;;;;;;5031165;28;20017;-72
2022/08/26 00:50:14;;;;;;;29.83;20.38;;;;;;;;;;5031906;28;20021;-73
2022/08/26 00:52:41;;;;;;;34.78;21.83;;;;;;;;;;5031868;28;20414;-71
2022/08/26 00:55:16;;;;;;;32.80;20.15;;;;;;;;;;5031541;28;20231;-71
2022/08/26 00:57:43;;;;;;;30.50;19.92;;;;;;;;;;5051305;28;20075;-72
2022/08/26 01:00:12;;;;;;;35.70;20.52;;;;;;;;;;5034655;28;20041;-72
2022/08/26 01:02:38;;;;;;;29.23;20.65;;;;;;;;;;5031605;28;20028;-73
2022/08/26 01:05:04;;;;;;;33.60;20.55;;;;;;;;;;5030748;28;20032;-73
2022/08/26 01:07:31;;;;;;;31.70;21.73;;;;;;;;;;5031209;28;20698;-72
2022/08/26 01:09:58;;;;;;;34.20;23.02;;;;;;;;;;5032466;28;20471;-74
2022/08/26 01:12:25;;;;;;;35.53;22.63;;;;;;;;;;5031618;28;20075;-74
2022/08/26 01:14:52;;;;;;;32.67;22.27;;;;;;;;;;5030490;28;20021;-74
2022/08/26 01:17:18;;;;;;;35.72;22.95;;;;;;;;;;5046302;28;20114;-71
2022/08/26 01:19:49;;;;;;;29.60;21.35;;;;;;;;;;5031388;28;20041;-71
2022/08/26 01:22:15;;;;;;;37.38;22.55;;;;;;;;;;5031072;28;20018;-71
2022/08/26 01:24:42;;;;;;;35.88;22.67;;;;;;;;;;5030295;28;20079;-72
2022/08/26 01:27:10;;;;;;;30.15;22.35;;;;;;;;;;5030882;28;20080;-72
2022/08/26 01:29:37;;;;;;;28.60;20.65;;;;;;;;;;5023066;28;20109;-70
2022/08/26 01:32:04;;;;;;;32.97;20.88;;;;;;;;;;5031263;28;20025;-72
2022/08/26 01:34:31;;;;;;;36.10;22.77;;;;;;;;;;5031284;28;20057;-73
2022/08/26 01:37:06;;;;;;;32.75;22.63;;;;;;;;;;5030791;28;20029;-73
2022/08/26 01:39:33;;;;;;;31.80;23.42;;;;;;;;;;5045939;28;20022;-73
2022/08/26 01:42:00;;;;;;;33.08;23.13;;;;;;;;;;5032074;28;20029;-72
2022/08/26 01:44:29;;;;;;;35.15;22.63;;;;;;;;;;5034907;28;20010;-73
2022/08/26 01:46:56;;;;;;;32.72;21.48;;;;;;;;;;5031434;28;20092;-74
2022/08/26 01:49:23;;;;;;;34.97;23.90;;;;;;;;;;5050058;28;20021;-71
2022/08/26 01:51:50;;;;;;;30.92;22.38;;;;;;;;;;5034932;28;20036;-72
2022/08/26 01:54:16;;;;;;;33.55;22.83;;;;;;;;;;5034706;28;20547;-73
2022/08/26 01:56:42;;;;;;;31.73;22.05;;;;;;;;;;5034889;28;20060;-73
2022/08/26 01:59:10;;;;;;;32.90;23.02;;;;;;;;;;5034834;28;20057;-73
2022/08/26 02:01:36;;;;;;;31.88;22.58;;;;;;;;;;5035419;28;20024;-73
2022/08/26 02:04:08;;;;;;;32.20;22.65;;;;;;;;;;5033108;28;20036;-75
2022/08/26 02:06:35;;;;;;;37.38;23.13;;;;;;;;;;5030916;28;20037;-73
2022/08/26 02:09:03;;;;;;;32.80;22.65;;;;;;;;;;5047697;28;20060;-73
2022/08/26 02:11:29;;;;;;;29.02;22.30;;;;;;;;;;5033907;28;20072;-73
2022/08/26 02:14:00;;;;;;;31.63;21.95;;;;;;;;;;5033456;28;20120;-71
2022/08/26 02:16:28;;;;;;;43.22;22.13;;;;;;;;;;5033570;28;20029;-74
2022/08/26 02:18:55;;;;;;;33.97;21.88;;;;;;;;;;5032596;28;20037;-74
2022/08/26 02:21:21;;;;;;;34.85;22.88;;;;;;;;;;5032269;28;20527;-73
2022/08/26 02:23:47;;;;;;;36.97;23.55;;;;;;;;;;5033530;28;20067;-73
2022/08/26 02:26:15;;;;;;;33.08;22.70;;;;;;;;;;5033852;28;20033;-74
2022/08/26 02:28:56;;;;;;;38.47;23.77;;;;;;;;;;5032684;28;20496;-74
2022/08/26 02:31:22;;;;;;;31.38;22.42;;;;;;;;;;5020992;28;20039;-73
2022/08/26 02:33:48;;;;;;;33.65;21.85;;;;;;;;;;5033469;28;20024;-73
2022/08/26 02:36:18;;;;;;;35.83;23.02;;;;;;;;;;5033427;28;20025;-72
2022/08/26 02:38:44;;;;;;;37.15;22.73;;;;;;;;;;5032703;28;20026;-72
2022/08/26 02:41:10;;;;;;;30.80;22.80;;;;;;;;;;5033090;28;20051;-72
2022/08/26 02:43:36;;;;;;;27.65;21.90;;;;;;;;;;5048580;28;20021;-74
2022/08/26 02:46:02;;;;;;;39.30;23.40;;;;;;;;;;5033197;28;20108;-73
2022/08/26 02:48:28;;;;;;;36.55;23.80;;;;;;;;;;5032415;28;20029;-73
2022/08/26 02:50:54;;;;;;;38.15;23.38;;;;;;;;;;5033580;28;20025;-72
2022/08/26 02:53:20;;;;;;;42.50;24.52;;;;;;;;;;5033175;28;20105;-72
2022/08/26 02:55:48;;;;;;;33.22;22.60;;;;;;;;;;5035629;28;20014;-72
2022/08/26 02:58:14;;;;;;;35.83;24.23;;;;;;;;;;5040020;28;20025;-74
2022/08/26 03:00:40;;;;;;;32.03;23.15;;;;;;;;;;5032973;28;20026;-71
2022/08/26 03:03:06;;;;;;;63.38;46.53;;;;;;;;;;5033876;28;20052;-73
2022/08/26 03:05:32;;;;;;;125.13;72.35;;;;;;;;;;5032804;28;20099;-71
2022/08/26 03:07:59;;;;;;;54.72;31.08;;;;;;;;;;5032450;28;20464;-73
2022/08/26 03:10:25;;;;;;;40.33;26.55;;;;;;;;;;5032679;28;20029;-70
2022/08/26 03:12:51;;;;;;;45.67;26.58;;;;;;;;;;5031784;28;20075;-73
2022/08/26 03:15:18;;;;;;;176.43;88.60;;;;;;;;;;5033059;28;20025;-73
2022/08/26 03:17:46;;;;;;;52.83;29.85;;;;;;;;;;5031640;28;20033;-72
2022/08/26 03:20:12;;;;;;;57.80;33.58;;;;;;;;;;5032601;28;20029;-72
2022/08/26 03:22:38;;;;;;;125.88;58.08;;;;;;;;;;5036223;28;20124;-72
2022/08/26 03:25:06;;;;;;;141.68;61.38;;;;;;;;;;5033225;28;20394;-73
2022/08/26 03:27:33;;;;;;;155.13;65.60;;;;;;;;;;5031408;28;20108;-72
2022/08/26 03:32:44;;;;;;;53.00;27.40;;;;;;;;;;5033080;28;20117;-71
2022/08/26 03:35:11;;;;;;;47.10;27.75;;;;;;;;;;5032413;28;20403;-73
2022/08/26 03:37:37;;;;;;;55.47;29.85;;;;;;;;;;5031318;28;20025;-78
2022/08/26 03:40:04;;;;;;;37.35;24.30;;;;;;;;;;5032436;28;20029;-74
2022/08/26 03:42:30;;;;;;;50.13;30.98;;;;;;;;;;5032526;28;20499;-70
2022/08/26 03:44:56;;;;;;;35.47;23.85;;;;;;;;;;5032011;28;20031;-74
2022/08/26 03:47:22;;;;;;;27.85;22.10;;;;;;;;;;5031109;28;20510;-73
2022/08/26 03:49:48;;;;;;;36.45;23.35;;;;;;;;;;5032459;28;20033;-74
2022/08/26 03:52:14;;;;;;;32.05;22.88;;;;;;;;;;5032260;28;20022;-74
2022/08/26 03:54:40;;;;;;;30.88;23.60;;;;;;;;;;5039273;28;20032;-73
2022/08/26 03:57:07;;;;;;;45.75;24.48;;;;;;;;;;5042660;28;20087;-73
2022/08/26 03:59:33;;;;;;;43.40;25.70;;;;;;;;;;5047049;28;20026;-73
2022/08/26 04:01:59;;;;;;;29.70;22.33;;;;;;;;;;5032633;28;20025;-73
2022/08/26 04:04:25;;;;;;;35.47;24.63;;;;;;;;;;5033123;28;20365;-71
2022/08/26 04:06:56;;;;;;;33.67;23.85;;;;;;;;;;5041156;28;20031;-72
2022/08/26 04:09:21;;;;;;;31.65;23.75;;;;;;;;;;5051601;28;20048;-73
2022/08/26 04:11:48;;;;;;;35.60;22.88;;;;;;;;;;5041412;28;20057;-73
2022/08/26 04:14:17;;;;;;;27.23;22.25;;;;;;;;;;5031841;28;20387;-73
2022/08/26 04:16:43;;;;;;;35.65;24.30;;;;;;;;;;5035308;28;20048;-74
2022/08/26 04:19:10;;;;;;;32.58;21.83;;;;;;;;;;5057642;22;20045;-70
2022/08/26 04:21:40;;;;;;;39.33;25.58;;;;;;;;;;5044263;28;20026;-71
2022/08/26 04:24:06;;;;;;;33.60;23.65;;;;;;;;;;5038326;28;20104;-71
2022/08/26 04:26:36;;;;;;;28.85;22.17;;;;;;;;;;5031215;28;20026;-71
2022/08/26 04:29:04;;;;;;;25.73;22.83;;;;;;;;;;5050576;28;20394;-71
2022/08/26 04:31:30;;;;;;;23.40;20.15;;;;;;;;;;5051593;28;20092;-72
2022/08/26 04:33:56;;;;;;;32.88;21.42;;;;;;;;;;5051456;28;20089;-71
2022/08/26 04:36:25;;;;;;;31.23;22.38;;;;;;;;;;5045547;28;20083;-71
2022/08/26 04:38:51;;;;;;;30.75;20.45;;;;;;;;;;5047874;28;20021;-70
2022/08/26 04:41:18;;;;;;;26.90;19.23;;;;;;;;;;5051897;28;20082;-71
2022/08/26 04:43:45;;;;;;;29.30;21.23;;;;;;;;;;5051927;28;20528;-71
2022/08/26 04:46:11;;;;;;;28.02;18.83;;;;;;;;;;5050297;28;20144;-72
2022/08/26 04:48:38;;;;;;;24.40;17.80;;;;;;;;;;5051190;28;20394;-72
2022/08/26 04:51:04;;;;;;;29.15;19.77;;;;;;;;;;5051722;28;20084;-72
2022/08/26 04:53:30;;;;;;;27.70;18.52;;;;;;;;;;5047473;28;20025;-72
2022/08/26 04:55:56;;;;;;;29.27;19.63;;;;;;;;;;5050643;28;20053;-71
2022/08/26 04:58:24;;;;;;;27.48;17.85;;;;;;;;;;5051777;28;20410;-72
2022/08/26 05:00:51;;;;;;;24.80;17.55;;;;;;;;;;5050687;28;20025;-72
2022/08/26 05:03:17;;;;;;;30.60;18.27;;;;;;;;;;5051302;28;20096;-71
2022/08/26 05:05:44;;;;;;;31.75;18.52;;;;;;;;;;5051067;28;20025;-72
2022/08/26 05:08:11;;;;;;;30.55;17.98;;;;;;;;;;5051064;28;20395;-70
2022/08/26 05:10:45;;;;;;;28.10;18.48;;;;;;;;;;5050843;28;20546;-70
2022/08/26 05:13:12;;;;;;;30.55;20.45;;;;;;;;;;5034918;28;20013;-71
2022/08/26 05:15:38;;;;;;;29.73;17.90;;;;;;;;;;5045595;28;20391;-71
2022/08/26 05:18:05;;;;;;;35.35;19.05;;;;;;;;;;5049830;28;20021;-71
2022/08/26 05:20:31;;;;;;;35.53;18.75;;;;;;;;;;5049463;28;20343;-72
2022/08/26 05:22:59;;;;;;;28.60;17.45;;;;;;;;;;5044129;28;20045;-72
2022/08/26 05:25:25;;;;;;;25.38;17.85;;;;;;;;;;5051293;28;20399;-73
2022/08/26 05:27:51;;;;;;;27.83;15.80;;;;;;;;;;5046280;28;20028;-72
2022/08/26 05:30:17;;;;;;;26.95;17.45;;;;;;;;;;5050065;28;20021;-72
2022/08/26 05:32:43;;;;;;;28.48;16.40;;;;;;;;;;5050666;28;20540;-72
2022/08/26 05:35:09;;;;;;;24.88;15.57;;;;;;;;;;5051047;28;20025;-71
2022/08/26 05:37:37;;;;;;;22.20;13.32;;;;;;;;;;5050424;28;20013;-71
2022/08/26 05:40:04;;;;;;;22.88;13.43;;;;;;;;;;5050854;28;20028;-71
2022/08/26 05:42:30;;;;;;;22.95;13.15;;;;;;;;;;5049260;28;20041;-73
2022/08/26 05:44:56;;;;;;;19.38;13.07;;;;;;;;;;5051103;28;20432;-72
2022/08/26 05:47:22;;;;;;;28.27;13.88;;;;;;;;;;5050314;28;20024;-74
2022/08/26 05:49:48;;;;;;;28.40;13.73;;;;;;;;;;5051868;28;20021;-72
2022/08/26 05:52:14;;;;;;;28.77;14.02;;;;;;;;;;5051447;28;20590;-72
2022/08/26 05:54:40;;;;;;;24.02;12.27;;;;;;;;;;5052590;28;20478;-74
2022/08/26 05:57:06;;;;;;;21.63;13.45;;;;;;;;;;5049934;28;20410;-71
2022/08/26 05:59:32;;;;;;;33.65;15.55;;;;;;;;;;5049052;28;20020;-72
2022/08/26 06:01:58;;;;;;;23.20;15.20;;;;;;;;;;5050598;28;20079;-71
2022/08/26 06:04:24;;;;;;;22.35;14.85;;;;;;;;;;5050293;28;20483;-71
2022/08/26 06:06:50;;;;;;;24.85;14.27;;;;;;;;;;5050494;28;20042;-73
2022/08/26 06:09:16;;;;;;;25.58;15.13;;;;;;;;;;5048658;28;20017;-71
2022/08/26 06:11:43;;;;;;;31.30;15.82;;;;;;;;;;5050350;28;20017;-72
2022/08/26 06:14:09;;;;;;;23.67;12.80;;;;;;;;;;5050171;28;20021;-72
2022/08/26 06:16:37;;;;;;;25.05;13.45;;;;;;;;;;5050216;28;20039;-72
2022/08/26 06:19:04;;;;;;;24.10;14.45;;;;;;;;;;5049593;28;20025;-72
2022/08/26 06:21:31;;;;;;;20.02;13.50;;;;;;;;;;5050189;28;20401;-72
2022/08/26 06:26:47;;;;;;;26.20;16.25;;;;;;;;;;5046889;28;20056;-73
2022/08/26 06:29:13;;;;;;;22.83;13.18;;;;;;;;;;5044061;28;20028;-74
2022/08/26 06:31:39;;;;;;;22.58;13.60;;;;;;;;;;5052574;28;20372;-74
2022/08/26 06:34:05;;;;;;;26.98;14.93;;;;;;;;;;5051741;28;20474;-73
2022/08/26 06:36:32;;;;;;;28.92;15.48;;;;;;;;;;5052058;28;20111;-72
2022/08/26 06:39:04;;;;;;;28.25;14.10;;;;;;;;;;5052570;28;20025;-73
2022/08/26 06:41:32;;;;;;;28.75;15.40;;;;;;;;;;5051738;28;20024;-73
2022/08/26 06:43:59;;;;;;;26.75;15.38;;;;;;;;;;5052741;28;20119;-74
2022/08/26 06:46:25;;;;;;;28.77;13.30;;;;;;;;;;5053028;28;20025;-72
2022/08/26 06:48:52;;;;;;;26.73;13.38;;;;;;;;;;5052621;28;20029;-71
2022/08/26 06:51:23;;;;;;;20.77;10.98;;;;;;;;;;5053223;28;20017;-73
2022/08/26 06:53:50;;;;;;;19.25;11.85;;;;;;;;;;5053353;28;20017;-71
2022/08/26 06:56:19;;;;;;;29.02;12.50;;;;;;;;;;5047078;28;20036;-73
2022/08/26 06:58:46;;;;;;;28.15;12.45;;;;;;;;;;5052482;28;20094;-74
2022/08/26 07:01:21;;;;;;;25.33;12.48;;;;;;;;;;5050674;28;20112;-72
2022/08/26 07:03:48;;;;;;;26.80;10.77;;;;;;;;;;5052607;28;20440;-72
2022/08/26 07:06:14;;;;;;;29.80;14.50;;;;;;;;;;5050733;28;20123;-72
2022/08/26 07:08:40;;;;;;;24.45;11.05;;;;;;;;;;5050796;28;20173;-73
2022/08/26 07:11:08;;;;;;;21.55;11.73;;;;;;;;;;5051973;28;20029;-73
2022/08/26 07:13:36;;;;;;;28.13;11.30;;;;;;;;;;5052799;28;20025;-72
2022/08/26 07:16:03;;;;;;;28.50;11.38;;;;;;;;;;5052797;28;20033;-73
2022/08/26 07:18:29;;;;;;;27.73;11.65;;;;;;;;;;5052567;28;20064;-73
2022/08/26 07:20:55;;;;;;;31.73;12.27;;;;;;;;;;5052966;28;20017;-73
2022/08/26 07:23:21;;;;;;;22.98;11.35;;;;;;;;;;5053987;28;20067;-72
2022/08/26 07:25:47;;;;;;;21.88;10.32;;;;;;;;;;5053977;28;20475;-74
2022/08/26 07:28:13;;;;;;;38.53;16.48;;;;;;;;;;5052200;28;20052;-74
2022/08/26 07:30:39;;;;;;;21.42;11.23;;;;;;;;;;5049028;28;20032;-74
2022/08/26 07:33:06;;;;;;;23.80;10.73;;;;;;;;;;5053135;28;20131;-73
2022/08/26 07:35:32;;;;;;;23.80;10.18;;;;;;;;;;5052797;28;20028;-73
2022/08/26 07:37:58;;;;;;;32.88;14.48;;;;;;;;;;5053269;28;20021;-75
2022/08/26 07:40:24;;;;;;;22.67;11.00;;;;;;;;;;5053029;28;20033;-75
2022/08/26 07:42:50;;;;;;;32.33;15.13;;;;;;;;;;5052730;28;20640;-74
2022/08/26 07:45:16;;;;;;;30.15;11.65;;;;;;;;;;5052917;28;20020;-74
2022/08/26 07:47:42;;;;;;;23.58;12.63;;;;;;;;;;5052512;28;20378;-74
2022/08/26 07:50:09;;;;;;;31.65;11.45;;;;;;;;;;5052386;28;20021;-74
2022/08/26 07:52:37;;;;;;;27.15;10.70;;;;;;;;;;5052562;28;20400;-72
2022/08/26 07:55:04;;;;;;;20.77;9.48;;;;;;;;;;5052263;28;20017;-71
2022/08/26 07:57:30;;;;;;;23.23;11.30;;;;;;;;;;5046544;28;20392;-72
2022/08/26 07:59:57;;;;;;;23.80;11.02;;;;;;;;;;5047975;28;20096;-73
2022/08/26 08:02:23;;;;;;;24.02;10.25;;;;;;;;;;5052034;28;20025;-73
2022/08/26 08:04:50;;;;;;;21.38;11.60;;;;;;;;;;5052979;28;20052;-73
2022/08/26 08:07:16;;;;;;;27.95;11.13;;;;;;;;;;5050972;28;20111;-73
2022/08/26 08:09:42;;;;;;;18.05;9.52;;;;;;;;;;5052550;28;20060;-72
2022/08/26 08:12:08;;;;;;;22.83;9.48;;;;;;;;;;5053537;28;20021;-73
2022/08/26 08:14:36;;;;;;;23.38;9.57;;;;;;;;;;5051001;28;20028;-72
2022/08/26 08:17:02;;;;;;;26.77;10.48;;;;;;;;;;5051903;28;20029;-72
2022/08/26 08:19:28;;;;;;;29.05;9.52;;;;;;;;;;5051437;28;20096;-74
2022/08/26 08:21:54;;;;;;;33.22;9.65;;;;;;;;;;5050618;28;20174;-72
2022/08/26 08:24:20;;;;;;;28.30;8.65;;;;;;;;;;5051739;28;20025;-72
2022/08/26 08:26:46;;;;;;;26.75;9.43;;;;;;;;;;5050111;28;20025;-73
2022/08/26 08:29:12;;;;;;;27.33;8.55;;;;;;;;;;5042514;28;20463;-71
2022/08/26 08:31:40;;;;;;;27.58;8.75;;;;;;;;;;5049558;28;20025;-71
2022/08/26 08:34:06;;;;;;;28.00;9.07;;;;;;;;;;5051092;28;20025;-73
2022/08/26 08:36:33;;;;;;;24.23;8.48;;;;;;;;;;5051159;28;20056;-73
2022/08/26 08:38:59;;;;;;;21.38;8.80;;;;;;;;;;5046255;28;20558;-73
2022/08/26 08:41:32;;;;;;;24.92;8.77;;;;;;;;;;5047149;28;20119;-73
2022/08/26 08:43:59;;;;;;;25.17;8.95;;;;;;;;;;5047814;28;20028;-73
2022/08/26 08:46:25;;;;;;;22.75;8.93;;;;;;;;;;5039886;28;20095;-73
2022/08/26 08:48:55;;;;;;;33.30;9.52;;;;;;;;;;5048984;28;20496;-73
2022/08/26 08:51:41;;;;;;;25.70;8.02;;;;;;;;;;5049381;28;20585;-72
2022/08/26 08:54:08;;;;;;;32.42;9.85;;;;;;;;;;5050807;28;20036;-74
2022/08/26 08:56:34;;;;;;;31.40;9.68;;;;;;;;;;5059243;28;20025;-72
2022/08/26 08:59:12;;;;;;;30.48;8.60;;;;;;;;;;5058595;28;20039;-73
2022/08/26 09:01:57;;;;;;;31.17;9.02;;;;;;;;;;5051767;28;20036;-73
2022/08/26 09:04:29;;;;;;;37.10;9.60;;;;;;;;;;5051468;28;20394;-73
2022/08/26 09:06:57;;;;;;;20.00;8.85;;;;;;;;;;5051787;28;20025;-72
2022/08/26 09:09:32;;;;;;;36.60;9.43;;;;;;;;;;5051004;28;20025;-73
2022/08/26 09:12:00;;;;;;;34.47;9.93;;;;;;;;;;5051218;28;20047;-73
2022/08/26 09:14:27;;;;;;;24.23;8.90;;;;;;;;;;5049954;28;20041;-73
2022/08/26 09:17:12;;;;;;;23.92;7.80;;;;;;;;;;5051259;28;20021;-74
2022/08/26 09:19:41;;;;;;;25.88;8.75;;;;;;;;;;5036424;28;20071;-73
2022/08/26 09:22:07;;;;;;;28.13;9.05;;;;;;;;;;5052366;28;20029;-73
2022/08/26 09:24:34;;;;;;;25.75;7.13;;;;;;;;;;5052277;28;20024;-72
2022/08/26 09:27:00;;;;;;;28.45;8.30;;;;;;;;;;5051015;28;20022;-72
2022/08/26 09:29:28;;;;;;;19.08;7.13;;;;;;;;;;5050723;28;20049;-72
2022/08/26 09:32:15;;;;;;;29.48;8.77;;;;;;;;;;5050853;28;20033;-72
2022/08/26 09:35:00;;;;;;;23.30;7.82;;;;;;;;;;5038172;28;20024;-72
2022/08/26 09:37:37;;;;;;;30.17;9.32;;;;;;;;;;5050235;28;20391;-73
2022/08/26 09:40:12;;;;;;;31.10;9.27;;;;;;;;;;5051103;28;20030;-72
2022/08/26 09:42:39;;;;;;;26.73;10.13;;;;;;;;;;5050897;28;20021;-72
2022/08/26 09:45:09;;;;;;;25.92;8.77;;;;;;;;;;5049807;28;20033;-74
2022/08/26 09:47:47;;;;;;;42.15;10.07;;;;;;;;;;5049057;28;20072;-73
2022/08/26 09:50:25;;;;;;;26.65;8.18;;;;;;;;;;5051092;28;20036;-73
2022/08/26 09:53:08;;;;;;;29.77;9.65;;;;;;;;;;5051009;28;20558;-72
2022/08/26 09:55:36;;;;;;;29.90;8.98;;;;;;;;;;5050643;28;20491;-73
2022/08/26 09:58:02;;;;;;;30.35;8.70;;;;;;;;;;5050897;28;20406;-73
2022/08/26 10:00:29;;;;;;;30.50;9.60;;;;;;;;;;5051413;28;20099;-73
2022/08/26 10:02:55;;;;;;;30.30;9.68;;;;;;;;;;5050717;28;20052;-73
2022/08/26 10:05:33;;;;;;;23.58;9.35;;;;;;;;;;5056828;28;20040;-73
2022/08/26 10:07:59;;;;;;;30.65;9.07;;;;;;;;;;5044724;28;20083;-72
2022/08/26 10:10:35;;;;;;;25.17;9.43;;;;;;;;;;5058768;28;20029;-73
2022/08/26 10:13:02;;;;;;;27.83;9.10;;;;;;;;;;5043790;28;20029;-73
2022/08/26 10:15:29;;;;;;;29.98;10.73;;;;;;;;;;5061990;28;20048;-73
2022/08/26 10:18:02;;;;;;;29.23;9.45;;;;;;;;;;5085161;22;20028;-74
2022/08/26 10:20:31;;;;;;;27.30;9.77;;;;;;;;;;5055204;28;20041;-76
2022/08/26 10:23:11;;;;;;;26.13;9.30;;;;;;;;;;5041114;28;20055;-77
2022/08/26 10:25:45;;;;;;;23.10;9.32;;;;;;;;;;5053252;28;20117;-76
2022/08/26 10:28:25;;;;;;;34.63;10.13;;;;;;;;;;5079686;22;20882;-75
2022/08/26 10:30:58;;;;;;;31.00;10.52;;;;;;;;;;5071525;28;20074;-75
2022/08/26 10:33:24;;;;;;;24.50;10.38;;;;;;;;;;5074584;28;20450;-76
2022/08/26 10:35:56;;;;;;;20.80;8.68;;;;;;;;;;5074365;28;20025;-76
2022/08/26 10:38:29;;;;;;;39.45;8.55;;;;;;;;;;5051173;28;20025;-75
2022/08/26 10:40:58;;;;;;;20.60;9.10;;;;;;;;;;5052860;28;20502;-76
2022/08/26 10:43:27;;;;;;;19.83;8.35;;;;;;;;;;5053126;28;20083;-75
2022/08/26 10:45:54;;;;;;;27.52;9.45;;;;;;;;;;5052885;28;20020;-75
2022/08/26 10:48:20;;;;;;;21.58;7.97;;;;;;;;;;5053635;28;20402;-74
2022/08/26 10:50:47;;;;;;;26.80;9.35;;;;;;;;;;5054221;28;20047;-76
2022/08/26 10:53:31;;;;;;;23.20;8.35;;;;;;;;;;5036106;28;20021;-78
2022/08/26 10:56:00;;;;;;;22.77;8.40;;;;;;;;;;5054025;28;20021;-76
2022/08/26 10:58:40;;;;;;;22.33;8.05;;;;;;;;;;5036378;28;20372;-76
2022/08/26 11:04:21;;;;;;;18.38;7.70;;;;;;;;;;5053981;28;20035;-75
2022/08/26 11:06:47;;;;;;;17.00;6.65;;;;;;;;;;5054261;28;20035;-76
2022/08/26 11:09:52;;;;;;;14.93;6.00;;;;;;;;;;5035562;28;20451;-76
2022/08/26 11:12:44;;;;;;;13.57;5.72;;;;;;;;;;4937360;29;20032;-76
2022/08/26 11:15:19;;;;;;;16.25;5.45;;;;;;;;;;4951200;28;20506;-74
2022/08/26 11:17:45;;;;;;;11.73;4.78;;;;;;;;;;5024054;28;20112;-75
2022/08/26 11:20:32;;;;;;;16.48;5.18;;;;;;;;;;5053486;28;20028;-76
2022/08/26 11:23:17;;;;;;;12.23;4.68;;;;;;;;;;5054011;28;20084;-77
2022/08/26 11:25:55;;;;;;;14.98;5.15;;;;;;;;;;5035314;28;20236;-77
2022/08/26 11:28:35;;;;;;;18.58;5.70;;;;;;;;;;5053141;28;20031;-76
2022/08/26 11:31:02;;;;;;;18.05;6.13;;;;;;;;;;5053244;28;20033;-75
2022/08/26 11:33:43;;;;;;;23.50;7.60;;;;;;;;;;5053414;28;20024;-74
2022/08/26 11:36:10;;;;;;;25.17;7.72;;;;;;;;;;5035502;28;20028;-76
2022/08/26 11:38:40;;;;;;;30.08;7.68;;;;;;;;;;5035458;28;20025;-76
2022/08/26 11:41:11;;;;;;;21.70;8.15;;;;;;;;;;5035359;28;20078;-77
2022/08/26 11:43:39;;;;;;;17.27;7.05;;;;;;;;;;5053634;28;20033;-76
2022/08/26 11:46:06;;;;;;;26.83;8.00;;;;;;;;;;5035335;28;20035;-75
2022/08/26 11:48:34;;;;;;;34.30;8.90;;;;;;;;;;5052879;28;20099;-77
2022/08/26 11:51:00;;;;;;;24.67;9.23;;;;;;;;;;5034826;28;20074;-77
2022/08/26 11:53:26;;;;;;;22.10;8.20;;;;;;;;;;5053176;28;20425;-77
2022/08/26 11:55:54;;;;;;;23.83;8.70;;;;;;;;;;5053498;28;20043;-76
2022/08/26 11:58:21;;;;;;;20.73;7.82;;;;;;;;;;5053124;28;20096;-75
2022/08/26 12:00:47;;;;;;;22.48;8.88;;;;;;;;;;5034853;28;20029;-76
2022/08/26 12:03:18;;;;;;;28.35;8.77;;;;;;;;;;5035378;28;20079;-76
2022/08/26 12:05:46;;;;;;;16.88;7.53;;;;;;;;;;5034795;28;20025;-75
2022/08/26 12:08:17;;;;;;;24.35;9.02;;;;;;;;;;5034381;28;20029;-75
2022/08/26 12:10:43;;;;;;;23.95;8.38;;;;;;;;;;5051860;28;20032;-76
2022/08/26 12:13:19;;;;;;;23.92;8.13;;;;;;;;;;5052964;28;20041;-76
2022/08/26 12:15:51;;;;;;;25.25;8.07;;;;;;;;;;5052629;28;20475;-75
2022/08/26 12:18:19;;;;;;;19.52;7.75;;;;;;;;;;5052785;28;20036;-77
2022/08/26 12:20:45;;;;;;;21.77;8.73;;;;;;;;;;5052098;28;20032;-76
2022/08/26 12:23:21;;;;;;;20.67;7.35;;;;;;;;;;5053622;28;20540;-75
2022/08/26 12:25:49;;;;;;;22.40;7.10;;;;;;;;;;5052828;28;20025;-77
2022/08/26 12:28:15;;;;;;;14.07;6.38;;;;;;;;;;5051724;28;20017;-77
2022/08/26 12:30:57;;;;;;;16.52;7.55;;;;;;;;;;5034506;28;20036;-76
2022/08/26 12:33:23;;;;;;;25.25;7.82;;;;;;;;;;5034483;28;20074;-76
2022/08/26 12:35:50;;;;;;;21.58;7.20;;;;;;;;;;5034457;28;20017;-75
2022/08/26 12:38:16;;;;;;;20.48;6.88;;;;;;;;;;5034906;28;20021;-75
2022/08/26 12:40:43;;;;;;;18.50;6.70;;;;;;;;;;5034881;28;20028;-76
2022/08/26 12:43:10;;;;;;;19.25;6.78;;;;;;;;;;5052938;28;20040;-75
2022/08/26 12:45:41;;;;;;;23.88;11.45;;;;;;;;;;5034286;28;20025;-77
2022/08/26 12:48:19;;;;;;;45.45;14.82;;;;;;;;;;5045694;22;20033;-76
2022/08/26 12:50:47;;;;;;;19.85;7.63;;;;;;;;;;5092182;28;20036;-76
2022/08/26 12:53:17;;;;;;;22.00;7.10;;;;;;;;;;5092287;28;20039;-76
2022/08/26 12:55:51;;;;;;;19.57;6.93;;;;;;;;;;5090471;28;20020;-76
2022/08/26 12:58:26;;;;;;;20.05;6.82;;;;;;;;;;5091887;28;20056;-76
2022/08/26 13:01:05;;;;;;;14.48;5.80;;;;;;;;;;5085924;28;20047;-76
2022/08/26 13:03:36;;;;;;;11.18;5.70;;;;;;;;;;5071185;22;20131;-76
2022/08/26 13:06:09;;;;;;;8.40;4.70;;;;;;;;;;5033204;28;20021;-75
2022/08/26 13:08:45;;;;;;;14.18;5.47;;;;;;;;;;5030095;28;20029;-76
2022/08/26 13:11:19;;;;;;;17.33;5.78;;;;;;;;;;5029936;28;20029;-74
2022/08/26 13:13:46;;;;;;;16.30;6.25;;;;;;;;;;5043076;28;20021;-74
2022/08/26 13:16:12;;;;;;;13.90;5.63;;;;;;;;;;5051061;28;20029;-75
2022/08/26 13:18:38;;;;;;;12.73;5.43;;;;;;;;;;5051024;28;20024;-74
2022/08/26 13:21:08;;;;;;;19.50;6.30;;;;;;;;;;5051126;28;20033;-74
2022/08/26 13:23:34;;;;;;;17.13;6.15;;;;;;;;;;5051174;28;20021;-74
2022/08/26 13:26:00;;;;;;;16.30;5.68;;;;;;;;;;5050940;28;20083;-74
2022/08/26 13:28:26;;;;;;;11.18;5.25;;;;;;;;;;5050765;28;20483;-75
2022/08/26 13:30:52;;;;;;;14.15;5.95;;;;;;;;;;5050664;28;20493;-75
2022/08/26 13:33:20;;;;;;;13.93;5.72;;;;;;;;;;5051153;28;20383;-74
2022/08/26 13:35:46;;;;;;;11.50;5.25;;;;;;;;;;5050952;28;20412;-74
2022/08/26 13:38:13;;;;;;;14.93;5.38;;;;;;;;;;5052120;28;20043;-74
2022/08/26 13:40:42;;;;;;;12.35;5.05;;;;;;;;;;5054769;28;20559;-75
2022/08/26 13:43:09;;;;;;;10.55;4.95;;;;;;;;;;5055078;28;20064;-74
2022/08/26 13:45:35;;;;;;;14.15;5.22;;;;;;;;;;5054708;28;20025;-75
2022/08/26 13:48:01;;;;;;;11.40;5.55;;;;;;;;;;5054689;28;20079;-76
2022/08/26 13:50:27;;;;;;;10.75;5.40;;;;;;;;;;5055020;28;20021;-74
2022/08/26 13:52:53;;;;;;;14.80;5.53;;;;;;;;;;5054666;28;20475;-75
2022/08/26 13:55:19;;;;;;;14.98;5.55;;;;;;;;;;5055156;28;20071;-74
2022/08/26 13:57:45;;;;;;;13.27;5.88;;;;;;;;;;5054458;28;20017;-75
2022/08/26 14:00:11;;;;;;;10.23;5.28;;;;;;;;;;5054893;28;20044;-75
2022/08/26 14:02:37;;;;;;;16.20;4.90;;;;;;;;;;5054443;28;20036;-75
2022/08/26 14:05:04;;;;;;;11.32;5.15;;;;;;;;;;5054816;28;20396;-74
2022/08/26 14:07:30;;;;;;;12.50;5.25;;;;;;;;;;5054460;28;20131;-74
2022/08/26 14:09:56;;;;;;;12.82;5.25;;;;;;;;;;5053264;28;20494;-74
2022/08/26 14:12:22;;;;;;;15.18;5.47;;;;;;;;;;5054114;28;20115;-74
2022/08/26 14:14:48;;;;;;;9.40;5.07;;;;;;;;;;5054759;28;20103;-74
2022/08/26 14:17:16;;;;;;;9.68;5.55;;;;;;;;;;5054770;28;20025;-75
2022/08/26 14:19:44;;;;;;;10.55;4.97;;;;;;;;;;5054619;28;20092;-75
2022/08/26 14:22:10;;;;;;;18.52;5.15;;;;;;;;;;5055155;28;20461;-74
2022/08/26 14:24:36;;;;;;;13.40;5.18;;;;;;;;;;5041118;28;20467;-75
2022/08/26 14:27:02;;;;;;;11.57;4.72;;;;;;;;;;5054339;28;20462;-74
2022/08/26 14:29:28;;;;;;;13.63;5.13;;;;;;;;;;5054328;28;20021;-75
2022/08/26 14:31:56;;;;;;;14.50;4.82;;;;;;;;;;5054249;28;20029;-75
2022/08/26 14:34:22;;;;;;;16.42;4.85;;;;;;;;;;5054172;28;20051;-74
2022/08/26 14:36:48;;;;;;;11.85;5.03;;;;;;;;;;5054360;28;20032;-75